createdAt,value
2023-01-04T00:00:37.578Z,991.93
2023-01-04T00:01:37.510Z,991.91
2023-01-04T00:02:37.643Z,991.84
2023-01-04T00:03:37.588Z,991.87
2023-01-04T00:04:37.516Z,991.85
2023-01-04T00:05:37.460Z,991.85
2023-01-04T00:06:37.449Z,991.84
2023-01-04T00:07:37.420Z,991.87
2023-01-04T00:08:37.457Z,991.84
2023-01-04T00:09:37.419Z,991.88
2023-01-04T00:10:37.414Z,991.86
2023-01-04T00:11:37.401Z,991.91
2023-01-04T00:12:37.370Z,991.92
2023-01-04T00:13:37.378Z,991.92
2023-01-04T00:14:37.350Z,991.97
2023-01-04T00:15:37.496Z,991.97
2023-01-04T00:16:37.390Z,991.92
2023-01-04T00:17:37.296Z,991.91
2023-01-04T00:18:37.299Z,991.92
2023-01-04T00:19:37.270Z,991.99
2023-01-04T00:20:37.262Z,991.95
2023-01-04T00:21:37.271Z,991.96
2023-01-04T00:22:37.243Z,991.98
2023-01-04T00:23:37.219Z,991.97
2023-01-04T00:24:37.227Z,991.96
2023-01-04T00:25:37.208Z,991.93
2023-01-04T00:26:37.199Z,991.94
2023-01-04T00:27:37.173Z,991.91
2023-01-04T00:28:37.162Z,991.93
2023-01-04T00:29:37.151Z,991.98
2023-01-04T00:30:37.156Z,991.97
2023-01-04T00:31:37.200Z,991.90
2023-01-04T00:32:37.113Z,991.93
2023-01-04T00:33:37.112Z,991.90
2023-01-04T00:34:37.110Z,991.86
2023-01-04T00:35:45.708Z,991.83
2023-01-04T00:36:38.084Z,991.80
2023-01-04T00:37:37.048Z,991.86
2023-01-04T00:38:37.031Z,991.80
2023-01-04T00:39:37.047Z,991.84
2023-01-04T00:40:37.017Z,991.78
2023-01-04T00:41:58.100Z,991.83
2023-01-04T00:42:38.000Z,991.85
2023-01-04T00:43:36.989Z,991.86
2023-01-04T00:44:36.979Z,991.88
2023-01-04T00:45:36.945Z,991.94
2023-01-04T00:46:36.977Z,991.93
2023-01-04T00:47:36.941Z,991.92
2023-01-04T00:48:40.336Z,991.94
2023-01-04T00:49:36.895Z,991.94
2023-01-04T00:50:36.881Z,991.82
2023-01-04T00:51:36.855Z,991.81
2023-01-04T00:52:36.865Z,991.71
2023-01-04T00:53:36.848Z,991.72
2023-01-04T00:54:36.861Z,991.78
2023-01-04T00:55:36.818Z,991.66
2023-01-04T00:56:36.835Z,991.68
2023-01-04T00:57:36.807Z,991.61
2023-01-04T00:58:36.793Z,991.60
2023-01-04T00:59:36.771Z,991.65
2023-01-04T01:00:36.757Z,991.56
2023-01-04T01:01:36.906Z,991.57
2023-01-04T01:02:36.887Z,991.59
2023-01-04T01:03:38.961Z,991.57
2023-01-04T01:04:36.706Z,991.58
2023-01-04T01:05:36.690Z,991.56
2023-01-04T01:06:36.682Z,991.49
2023-01-04T01:07:36.665Z,991.57
2023-01-04T01:08:36.653Z,991.59
2023-01-04T01:09:36.640Z,991.58
2023-01-04T01:10:36.623Z,991.56
2023-01-04T01:11:36.620Z,991.61
2023-01-04T01:12:36.631Z,991.59
2023-01-04T01:13:36.583Z,991.58
2023-01-04T01:14:36.592Z,991.50
2023-01-04T01:15:36.576Z,991.50
2023-01-04T01:17:37.555Z,991.56
2023-01-04T01:18:36.547Z,991.54
2023-01-04T01:19:36.506Z,991.48
2023-01-04T01:20:36.502Z,991.55
2023-01-04T01:21:36.485Z,991.52
2023-01-04T01:22:36.478Z,991.46
2023-01-04T01:23:36.453Z,991.49
2023-01-04T01:24:36.437Z,991.53
2023-01-04T01:25:36.423Z,991.52
2023-01-04T01:26:36.421Z,991.52
2023-01-04T01:27:36.421Z,991.58
2023-01-04T01:28:36.397Z,991.54
2023-01-04T01:29:36.372Z,991.50
2023-01-04T01:30:36.375Z,991.54
2023-01-04T01:31:36.458Z,991.58
2023-01-04T01:32:36.354Z,991.61
2023-01-04T01:33:36.326Z,991.62
2023-01-04T01:34:36.304Z,991.62
2023-01-04T01:35:36.285Z,991.62
2023-01-04T01:36:36.322Z,991.63
2023-01-04T01:37:36.285Z,991.60
2023-01-04T01:38:36.256Z,991.63
2023-01-04T01:39:36.265Z,991.56
2023-01-04T01:40:36.251Z,991.54
2023-01-04T01:41:36.226Z,991.63
2023-01-04T01:42:36.217Z,991.64
2023-01-04T01:43:36.189Z,991.64
2023-01-04T01:44:36.191Z,991.56
2023-01-04T01:45:36.164Z,991.57
2023-01-04T01:46:36.230Z,991.59
2023-01-04T01:47:36.183Z,991.56
2023-01-04T01:48:36.134Z,991.53
2023-01-04T01:49:36.114Z,991.58
2023-01-04T01:50:36.116Z,991.60
2023-01-04T01:51:36.087Z,991.51
2023-01-04T01:52:36.077Z,991.52
2023-01-04T01:53:36.113Z,991.55
2023-01-04T01:54:36.056Z,991.55
2023-01-04T01:55:36.035Z,991.57
2023-01-04T01:56:36.025Z,991.52
2023-01-04T01:57:36.005Z,991.54
2023-01-04T01:58:36.016Z,991.51
2023-01-04T01:59:36.004Z,991.57
2023-01-04T02:00:35.985Z,991.55
2023-01-04T02:01:36.095Z,991.57
2023-01-04T02:02:36.284Z,991.60
2023-01-04T02:03:35.996Z,991.60
2023-01-04T02:04:35.937Z,991.60
2023-01-04T02:05:35.917Z,991.61
2023-01-04T02:06:35.913Z,991.63
2023-01-04T02:07:35.885Z,991.60
2023-01-04T02:08:35.911Z,991.55
2023-01-04T02:09:35.862Z,991.58
2023-01-04T02:10:35.880Z,991.54
2023-01-04T02:11:35.829Z,991.54
2023-01-04T02:12:35.832Z,991.53
2023-01-04T02:13:35.844Z,991.55
2023-01-04T02:14:35.806Z,991.49
2023-01-04T02:15:35.851Z,991.54
2023-01-04T02:16:35.914Z,991.50
2023-01-04T02:17:35.806Z,991.49
2023-01-04T02:18:35.761Z,991.53
2023-01-04T02:19:35.737Z,991.47
2023-01-04T02:20:35.736Z,991.47
2023-01-04T02:21:35.699Z,991.44
2023-01-04T02:22:35.697Z,991.43
2023-01-04T02:23:35.695Z,991.45
2023-01-04T02:24:35.695Z,991.37
2023-01-04T02:25:35.646Z,991.45
2023-01-04T02:26:35.658Z,991.37
2023-01-04T02:27:35.618Z,991.39
2023-01-04T02:28:35.626Z,991.42
2023-01-04T02:29:35.623Z,991.34
2023-01-04T02:30:35.603Z,991.33
2023-01-04T02:31:35.668Z,991.27
2023-01-04T02:32:35.567Z,991.25
2023-01-04T02:33:35.578Z,991.21
2023-01-04T02:34:35.537Z,991.19
2023-01-04T02:35:35.541Z,991.22
2023-01-04T02:36:35.520Z,991.15
2023-01-04T02:37:35.577Z,991.19
2023-01-04T02:38:35.512Z,991.17
2023-01-04T02:39:35.493Z,991.20
2023-01-04T02:40:35.467Z,991.16
2023-01-04T02:41:35.468Z,991.21
2023-01-04T02:42:35.440Z,991.16
2023-01-04T02:43:35.444Z,991.15
2023-01-04T02:44:35.420Z,991.17
2023-01-04T02:45:35.388Z,991.15
2023-01-04T02:46:35.475Z,991.12
2023-01-04T02:47:35.367Z,991.15
2023-01-04T02:48:35.375Z,991.17
2023-01-04T02:49:35.359Z,991.25
2023-01-04T02:50:35.350Z,991.22
2023-01-04T02:51:35.307Z,991.27
2023-01-04T02:52:35.414Z,991.29
2023-01-04T02:53:35.307Z,991.28
2023-01-04T02:54:35.277Z,991.24
2023-01-04T02:55:35.259Z,991.27
2023-01-04T02:56:35.297Z,991.27
2023-01-04T02:57:35.248Z,991.26
2023-01-04T02:58:35.260Z,991.31
2023-01-04T02:59:35.208Z,991.28
2023-01-04T03:00:35.260Z,991.32
2023-01-04T03:01:35.271Z,991.26
2023-01-04T03:02:35.345Z,991.26
2023-01-04T03:03:35.253Z,991.32
2023-01-04T03:04:35.159Z,991.33
2023-01-04T03:05:35.122Z,991.24
2023-01-04T03:06:35.146Z,991.20
2023-01-04T03:07:35.119Z,991.20
2023-01-04T03:08:35.128Z,991.30
2023-01-04T03:09:35.105Z,991.31
2023-01-04T03:10:35.119Z,991.30
2023-01-04T03:11:35.069Z,991.26
2023-01-04T03:12:35.058Z,991.31
2023-01-04T03:13:35.038Z,991.18
2023-01-04T03:14:35.040Z,991.26
2023-01-04T03:15:35.009Z,991.17
2023-01-04T03:16:35.048Z,991.16
2023-01-04T03:17:34.987Z,991.21
2023-01-04T03:18:35.018Z,991.23
2023-01-04T03:19:34.986Z,991.16
2023-01-04T03:20:34.949Z,991.17
2023-01-04T03:22:25.708Z,991.15
2023-01-04T03:23:25.689Z,991.13
2023-01-04T03:24:25.688Z,991.10
2023-01-04T03:25:25.668Z,991.15
2023-01-04T03:26:25.660Z,991.08
2023-01-04T03:27:25.641Z,991.11
2023-01-04T03:28:25.645Z,991.10
2023-01-04T03:29:25.678Z,991.10
2023-01-04T03:30:25.617Z,991.03
2023-01-04T03:31:25.643Z,991.05
2023-01-04T03:32:25.606Z,991.13
2023-01-04T03:33:25.582Z,991.06
2023-01-04T03:34:25.576Z,991.07
2023-01-04T03:35:25.548Z,991.14
2023-01-04T03:36:25.535Z,991.08
2023-01-04T03:37:25.528Z,991.17
2023-01-04T03:38:25.547Z,991.13
2023-01-04T03:39:25.500Z,991.08
2023-01-04T03:40:25.481Z,991.05
2023-01-04T03:41:25.476Z,991.01
2023-01-04T03:42:25.467Z,991.05
2023-01-04T03:43:25.457Z,991.06
2023-01-04T03:44:25.450Z,991.05
2023-01-04T03:45:25.412Z,991.03
2023-01-04T03:46:25.452Z,991.05
2023-01-04T03:47:25.434Z,990.99
2023-01-04T03:48:25.398Z,991.00
2023-01-04T03:49:25.370Z,990.95
2023-01-04T04:03:04.932Z,990.82
2023-01-04T04:04:05.024Z,990.81
2023-01-04T04:05:04.943Z,990.80
2023-01-04T04:06:04.906Z,990.78
2023-01-04T04:07:04.888Z,990.82
2023-01-04T04:08:04.860Z,990.87
2023-01-04T04:09:04.892Z,990.78
2023-01-04T04:10:04.844Z,990.72
2023-01-04T04:11:04.867Z,990.76
2023-01-04T04:12:04.805Z,990.70
2023-01-04T04:13:04.829Z,990.68
2023-01-04T04:14:04.791Z,990.68
2023-01-04T04:15:04.778Z,990.69
2023-01-04T04:16:04.867Z,990.66
2023-01-04T04:17:04.753Z,990.61
2023-01-04T04:18:04.719Z,990.62
2023-01-04T04:19:08.787Z,990.65
2023-01-04T04:20:04.721Z,990.56
2023-01-04T04:21:04.710Z,990.54
2023-01-04T04:22:04.673Z,990.48
2023-01-04T04:23:04.667Z,990.50
2023-01-04T04:24:04.694Z,990.47
2023-01-04T04:25:04.643Z,990.49
2023-01-04T04:26:04.662Z,990.47
2023-01-04T04:27:04.622Z,990.47
2023-01-04T04:28:04.622Z,990.49
2023-01-04T04:29:04.642Z,990.47
2023-01-04T04:30:04.691Z,990.40
2023-01-04T04:31:04.593Z,990.49
2023-01-04T04:32:04.655Z,990.46
2023-01-04T04:33:04.556Z,990.42
2023-01-04T04:34:04.546Z,990.48
2023-01-04T04:35:04.557Z,990.53
2023-01-04T04:36:04.516Z,990.47
2023-01-04T04:37:04.536Z,990.46
2023-01-04T04:38:04.485Z,990.49
2023-01-04T04:39:04.476Z,990.46
2023-01-04T04:40:04.559Z,990.42
2023-01-04T04:41:04.487Z,990.49
2023-01-04T04:42:04.433Z,990.51
2023-01-04T04:43:04.462Z,990.47
2023-01-04T04:44:04.437Z,990.51
2023-01-04T04:45:04.397Z,990.49
2023-01-04T04:46:04.512Z,990.44
2023-01-04T04:47:04.376Z,990.43
2023-01-04T04:48:04.388Z,990.46
2023-01-04T04:49:04.345Z,990.38
2023-01-04T04:50:04.345Z,990.36
2023-01-04T04:51:04.348Z,990.32
2023-01-04T04:52:04.320Z,990.39
2023-01-04T04:53:04.310Z,990.35
2023-01-04T04:54:04.306Z,990.37
2023-01-04T04:55:04.282Z,990.41
2023-01-04T04:56:04.263Z,990.41
2023-01-04T04:57:04.274Z,990.38
2023-01-04T04:58:04.276Z,990.35
2023-01-04T04:59:04.245Z,990.30
2023-01-04T05:00:04.210Z,990.26
2023-01-04T05:01:04.282Z,990.28
2023-01-04T05:02:04.357Z,990.15
2023-01-04T05:03:04.276Z,990.10
2023-01-04T05:04:04.167Z,990.16
2023-01-04T05:05:04.134Z,990.11
2023-01-04T05:06:04.138Z,990.09
2023-01-04T05:07:08.911Z,990.08
2023-01-04T05:08:05.121Z,990.09
2023-01-04T05:09:04.099Z,990.12
2023-01-04T05:10:04.080Z,990.06
2023-01-04T05:11:04.077Z,990.04
2023-01-04T05:12:04.058Z,990.00
2023-01-04T05:13:04.053Z,989.99
2023-01-04T05:14:04.086Z,989.99
2023-01-04T05:15:04.026Z,990.00
2023-01-04T05:16:04.041Z,990.02
2023-01-04T05:17:04.065Z,990.08
2023-01-04T05:18:03.996Z,990.03
2023-01-04T05:19:03.965Z,990.03
2023-01-04T05:20:03.963Z,990.09
2023-01-04T05:21:03.964Z,989.98
2023-01-04T05:22:03.939Z,990.02
2023-01-04T05:23:03.930Z,990.09
2023-01-04T05:24:03.914Z,990.07
2023-01-04T05:25:03.903Z,990.01
2023-01-04T05:26:03.882Z,990.01
2023-01-04T05:27:03.905Z,990.05
2023-01-04T05:28:03.856Z,990.04
2023-01-04T05:29:03.865Z,990.08
2023-01-04T05:30:03.826Z,990.12
2023-01-04T05:31:03.842Z,990.08
2023-01-04T05:32:03.831Z,990.13
2023-01-04T05:33:03.786Z,990.12
2023-01-04T05:34:03.776Z,990.03
2023-01-04T05:35:03.774Z,990.14
2023-01-04T05:36:03.749Z,990.10
2023-01-04T05:37:03.751Z,990.03
2023-01-04T05:38:03.724Z,990.02
2023-01-04T05:39:03.717Z,990.07
2023-01-04T05:40:03.704Z,990.07
2023-01-04T05:41:03.698Z,990.08
2023-01-04T05:42:03.673Z,990.06
2023-01-04T05:43:03.715Z,990.07
2023-01-04T05:44:03.646Z,990.07
2023-01-04T05:45:03.631Z,990.01
2023-01-04T05:46:03.684Z,990.05
2023-01-04T05:47:03.605Z,990.03
2023-01-04T05:48:03.607Z,990.04
2023-01-04T05:49:03.633Z,990.03
2023-01-04T05:50:03.589Z,990.02
2023-01-04T05:51:03.566Z,990.03
2023-01-04T05:52:03.560Z,989.98
2023-01-04T05:53:03.540Z,989.98
2023-01-04T05:54:03.533Z,989.94
2023-01-04T05:55:03.520Z,990.02
2023-01-04T05:56:03.508Z,990.05
2023-01-04T05:57:03.478Z,990.01
2023-01-04T05:58:03.471Z,990.07
2023-01-04T05:59:03.478Z,989.99
2023-01-04T06:00:03.451Z,989.99
2023-01-04T06:01:03.438Z,990.00
2023-01-04T06:02:03.521Z,990.01
2023-01-04T06:03:03.548Z,989.93
2023-01-04T06:04:03.427Z,989.98
2023-01-04T06:05:03.388Z,989.98
2023-01-04T06:06:03.387Z,989.99
2023-01-04T06:07:03.358Z,989.93
2023-01-04T06:08:03.348Z,989.92
2023-01-04T06:09:03.337Z,989.94
2023-01-04T06:10:03.318Z,989.99
2023-01-04T06:11:03.306Z,989.91
2023-01-04T06:12:03.278Z,989.92
2023-01-04T06:13:03.306Z,989.91
2023-01-04T06:14:03.269Z,989.87
2023-01-04T06:15:03.264Z,989.86
2023-01-04T06:16:03.267Z,989.82
2023-01-04T06:17:03.293Z,989.78
2023-01-04T06:18:04.649Z,989.82
2023-01-04T06:19:03.358Z,989.74
2023-01-04T06:20:03.188Z,989.76
2023-01-04T06:21:03.230Z,989.76
2023-01-04T06:22:03.160Z,989.76
2023-01-04T06:23:03.174Z,989.74
2023-01-04T06:24:03.152Z,989.75
2023-01-04T06:25:03.150Z,989.73
2023-01-04T06:26:03.149Z,989.68
2023-01-04T06:27:03.124Z,989.62
2023-01-04T06:28:03.094Z,989.62
2023-01-04T06:29:03.111Z,989.65
2023-01-04T06:30:03.104Z,989.58
2023-01-04T06:31:03.107Z,989.64
2023-01-04T06:32:03.066Z,989.62
2023-01-04T06:33:03.046Z,989.55
2023-01-04T06:34:03.017Z,989.60
2023-01-04T06:35:03.064Z,989.60
2023-01-04T06:36:03.434Z,989.69
2023-01-04T06:37:03.004Z,989.59
2023-01-04T06:38:02.968Z,989.52
2023-01-04T06:39:02.958Z,989.50
2023-01-04T06:40:02.941Z,989.42
2023-01-04T06:41:02.930Z,989.35
2023-01-04T06:42:06.619Z,989.36
2023-01-04T06:43:02.910Z,989.33
2023-01-04T06:44:02.889Z,989.36
2023-01-04T06:45:02.900Z,989.27
2023-01-04T06:46:02.961Z,989.30
2023-01-04T06:47:02.861Z,989.26
2023-01-04T06:48:08.745Z,989.22
2023-01-04T06:49:03.828Z,989.18
2023-01-04T06:50:02.809Z,989.21
2023-01-04T06:51:02.821Z,989.29
2023-01-04T06:52:02.781Z,989.25
2023-01-04T06:53:02.779Z,989.23
2023-01-04T06:54:02.762Z,989.24
2023-01-04T06:55:02.796Z,989.20
2023-01-04T06:56:02.751Z,989.28
2023-01-04T06:57:02.737Z,989.21
2023-01-04T06:58:02.709Z,989.14
2023-01-04T06:59:02.702Z,989.20
2023-01-04T07:00:02.695Z,989.24
2023-01-04T07:01:02.733Z,989.21
2023-01-04T07:02:02.769Z,989.22
2023-01-04T07:03:13.857Z,989.16
2023-01-04T07:04:03.671Z,989.09
2023-01-04T07:05:02.693Z,989.22
2023-01-04T07:06:02.656Z,989.16
2023-01-04T07:07:02.599Z,989.17
2023-01-04T07:08:07.890Z,989.19
2023-01-04T07:09:03.569Z,989.22
2023-01-04T07:10:09.094Z,989.15
2023-01-04T07:11:03.562Z,989.11
2023-01-04T07:12:02.554Z,989.14
2023-01-04T07:13:02.531Z,989.13
2023-01-04T07:14:02.774Z,989.08
2023-01-04T07:15:02.490Z,989.11
2023-01-04T07:16:03.589Z,989.15
2023-01-04T07:17:02.489Z,989.04
2023-01-04T07:18:02.467Z,989.07
2023-01-04T07:19:02.471Z,989.14
2023-01-04T07:20:02.492Z,989.12
2023-01-04T07:21:02.437Z,989.13
2023-01-04T07:22:02.421Z,989.05
2023-01-04T07:23:02.402Z,989.04
2023-01-04T07:24:02.390Z,989.02
2023-01-04T07:25:02.370Z,989.02
2023-01-04T07:26:02.386Z,989.03
2023-01-04T07:27:02.351Z,989.05
2023-01-04T07:28:02.336Z,989.05
2023-01-04T07:29:02.331Z,989.03
2023-01-04T07:30:02.335Z,988.95
2023-01-04T07:31:02.335Z,988.99
2023-01-04T07:32:02.281Z,988.93
2023-01-04T07:33:02.270Z,988.97
2023-01-04T07:34:02.274Z,988.86
2023-01-04T07:35:02.260Z,988.92
2023-01-04T07:36:02.242Z,988.87
2023-01-04T07:37:02.228Z,988.84
2023-01-04T07:38:02.221Z,988.84
2023-01-04T07:39:02.212Z,988.82
2023-01-04T07:40:02.185Z,988.86
2023-01-04T07:41:02.170Z,988.88
2023-01-04T07:42:02.179Z,988.91
2023-01-04T07:43:02.150Z,988.87
2023-01-04T07:44:02.157Z,988.88
2023-01-04T07:45:02.104Z,988.91
2023-01-04T07:46:02.258Z,988.85
2023-01-04T07:47:02.099Z,988.87
2023-01-04T07:48:02.118Z,988.94
2023-01-04T07:49:02.071Z,988.88
2023-01-04T07:50:02.052Z,988.83
2023-01-04T07:51:02.048Z,988.84
2023-01-04T07:52:02.061Z,988.86
2023-01-04T07:53:02.075Z,988.84
2023-01-04T07:54:02.010Z,988.87
2023-01-04T07:55:01.991Z,988.88
2023-01-04T07:56:01.998Z,988.89
2023-01-04T07:57:01.962Z,988.86
2023-01-04T07:58:01.944Z,988.82
2023-01-04T07:59:01.942Z,988.89
2023-01-04T08:00:01.962Z,988.84
2023-01-04T08:01:01.926Z,988.88
2023-01-04T08:02:02.120Z,988.86
2023-01-04T08:03:02.006Z,988.86
2023-01-04T08:04:01.921Z,988.81
2023-01-04T08:05:01.978Z,988.80
2023-01-04T08:06:01.856Z,988.82
2023-01-04T08:07:01.857Z,988.86
2023-01-04T08:08:01.833Z,988.89
2023-01-04T08:09:01.819Z,988.83
2023-01-04T08:10:01.860Z,988.74
2023-01-04T08:11:01.827Z,988.80
2023-01-04T08:12:01.766Z,988.79
2023-01-04T08:13:01.777Z,988.82
2023-01-04T08:14:01.783Z,988.78
2023-01-04T08:15:01.735Z,988.81
2023-01-04T08:16:01.787Z,988.84
2023-01-04T08:17:01.755Z,988.83
2023-01-04T08:18:01.709Z,988.88
2023-01-04T08:19:01.690Z,988.82
2023-01-04T08:20:01.688Z,988.92
2023-01-04T08:21:01.669Z,988.88
2023-01-04T08:22:01.648Z,988.81
2023-01-04T08:23:01.644Z,988.78
2023-01-04T08:24:01.636Z,988.80
2023-01-04T08:25:01.621Z,988.80
2023-01-04T08:26:01.599Z,988.73
2023-01-04T08:27:01.602Z,988.68
2023-01-04T08:28:01.590Z,988.71
2023-01-04T08:29:01.557Z,988.68
2023-01-04T08:30:01.568Z,988.59
2023-01-04T08:31:01.696Z,988.62
2023-01-04T08:32:01.532Z,988.63
2023-01-04T08:33:01.547Z,988.60
2023-01-04T08:34:01.487Z,988.51
2023-01-04T08:35:01.488Z,988.57
2023-01-04T08:36:01.544Z,988.54
2023-01-04T08:37:01.459Z,988.56
2023-01-04T08:38:21.393Z,988.50
2023-01-04T08:39:02.573Z,988.49
2023-01-04T08:40:01.501Z,988.53
2023-01-04T08:41:11.519Z,988.48
2023-01-04T08:42:14.350Z,988.50
2023-01-04T08:43:02.386Z,988.46
2023-01-04T08:44:01.370Z,988.44
2023-01-04T08:45:01.979Z,988.49
2023-01-04T08:46:01.360Z,988.37
2023-01-04T08:47:01.427Z,988.37
2023-01-04T08:48:01.349Z,988.29
2023-01-04T08:49:01.313Z,988.29
2023-01-04T08:50:08.118Z,988.30
2023-01-04T08:51:02.275Z,988.30
2023-01-04T08:52:01.380Z,988.27
2023-01-04T08:53:01.269Z,988.18
2023-01-04T08:54:01.260Z,988.08
2023-01-04T08:55:02.633Z,988.05
2023-01-04T08:56:01.221Z,988.04
2023-01-04T08:57:01.247Z,988.01
2023-01-04T08:58:01.190Z,988.02
2023-01-04T08:59:01.187Z,988.01
2023-01-04T09:00:01.207Z,987.99
2023-01-04T09:01:01.146Z,988.00
2023-01-04T09:02:05.142Z,987.98
2023-01-04T09:03:01.269Z,987.96
2023-01-04T09:04:01.227Z,987.93
2023-01-04T09:05:01.177Z,988.03
2023-01-04T09:06:01.102Z,988.02
2023-01-04T09:07:01.090Z,987.94
2023-01-04T09:08:01.072Z,987.98
2023-01-04T09:09:01.069Z,987.84
2023-01-04T09:10:01.155Z,987.88
2023-01-04T09:11:01.058Z,987.87
2023-01-04T09:12:01.039Z,987.86
2023-01-04T09:13:01.011Z,987.87
2023-01-04T09:14:09.472Z,987.84
2023-01-04T09:15:01.965Z,987.79
2023-01-04T09:16:01.014Z,987.89
2023-01-04T09:17:00.967Z,987.83
2023-01-04T09:19:01.926Z,987.88
2023-01-04T09:20:00.914Z,987.80
2023-01-04T09:21:00.905Z,987.80
2023-01-04T09:22:00.950Z,987.82
2023-01-04T09:23:11.589Z,987.80
2023-01-04T09:24:00.891Z,987.89
2023-01-04T09:25:00.858Z,987.80
2023-01-04T09:26:05.649Z,987.83
2023-01-04T09:27:01.817Z,987.81
2023-01-04T09:28:00.829Z,987.86
2023-01-04T09:29:00.787Z,987.86
2023-01-04T09:30:00.800Z,987.80
2023-01-04T09:31:00.849Z,987.87
2023-01-04T09:32:00.805Z,987.78
2023-01-04T09:33:00.755Z,987.76
2023-01-04T09:34:17.742Z,987.77
2023-01-04T09:35:01.751Z,987.76
2023-01-04T09:36:00.709Z,987.69
2023-01-04T09:37:00.693Z,987.65
2023-01-04T09:38:00.706Z,987.74
2023-01-04T09:39:00.677Z,987.74
2023-01-04T09:40:00.688Z,987.71
2023-01-04T09:41:00.644Z,987.74
2023-01-04T09:42:00.623Z,987.75
2023-01-04T09:43:20.378Z,987.76
2023-01-04T09:44:01.638Z,987.73
2023-01-04T09:46:01.595Z,987.74
2023-01-04T09:47:00.588Z,987.68
2023-01-04T10:03:29.095Z,987.74
2023-01-04T10:04:28.942Z,987.67
2023-01-04T10:05:28.922Z,987.59
2023-01-04T10:06:28.922Z,987.65
2023-01-04T10:07:28.896Z,987.66
2023-01-04T10:08:28.900Z,987.63
2023-01-04T10:09:28.871Z,987.59
2023-01-04T10:10:28.860Z,987.53
2023-01-04T10:11:28.878Z,987.50
2023-01-04T10:12:28.846Z,987.58
2023-01-04T10:13:28.831Z,987.53
2023-01-04T10:14:28.807Z,987.56
2023-01-04T10:15:28.787Z,987.47
2023-01-04T10:16:52.394Z,987.43
2023-01-04T10:18:52.084Z,987.42
2023-01-04T10:21:34.000Z,987.44
2023-01-04T10:22:28.708Z,987.42
2023-01-04T10:23:28.709Z,987.42
2023-01-04T10:24:28.709Z,987.44
2023-01-04T10:25:28.689Z,987.41
2023-01-04T10:26:28.668Z,987.34
2023-01-04T10:27:28.658Z,987.40
2023-01-04T10:28:28.635Z,987.25
2023-01-04T10:29:28.645Z,987.33
2023-01-04T10:30:28.628Z,987.33
2023-01-04T10:31:40.782Z,987.36
2023-01-04T10:32:29.625Z,987.40
2023-01-04T10:33:28.573Z,987.31
2023-01-04T10:34:28.578Z,987.31
2023-01-04T10:35:28.539Z,987.18
2023-01-04T10:36:28.551Z,987.22
2023-01-04T10:37:28.543Z,987.22
2023-01-04T10:38:28.499Z,987.16
2023-01-04T10:39:32.461Z,987.17
2023-01-04T10:40:28.469Z,987.06
2023-01-04T10:41:28.462Z,987.01
2023-01-04T10:42:28.461Z,987.09
2023-01-04T10:43:28.446Z,987.10
2023-01-04T10:44:28.429Z,986.98
2023-01-04T10:45:28.417Z,986.99
2023-01-04T10:46:28.453Z,986.98
2023-01-04T10:47:28.391Z,987.02
2023-01-04T10:48:28.369Z,986.97
2023-01-04T10:49:28.381Z,986.96
2023-01-04T10:50:28.352Z,986.98
2023-01-04T10:51:28.325Z,986.91
2023-01-04T10:52:28.340Z,986.79
2023-01-04T10:53:28.338Z,986.79
2023-01-04T10:54:28.314Z,986.72
2023-01-04T10:55:28.301Z,986.80
2023-01-04T10:56:28.328Z,986.76
2023-01-04T10:57:28.262Z,986.76
2023-01-04T10:58:28.240Z,986.72
2023-01-04T10:59:28.224Z,986.67
2023-01-04T11:00:28.230Z,986.70
2023-01-04T11:01:28.291Z,986.73
2023-01-04T11:02:28.281Z,986.65
2023-01-04T11:03:28.228Z,986.66
2023-01-04T11:04:28.160Z,986.67
2023-01-04T11:05:28.227Z,986.67
2023-01-04T11:06:28.162Z,986.73
2023-01-04T11:07:28.164Z,986.64
2023-01-04T11:08:28.153Z,986.63
2023-01-04T11:09:28.132Z,986.64
2023-01-04T11:10:28.139Z,986.67
2023-01-04T11:11:28.093Z,986.58
2023-01-04T11:12:28.080Z,986.62
2023-01-04T11:13:28.061Z,986.67
2023-01-04T11:14:33.377Z,986.51
2023-01-04T11:15:29.064Z,986.54
2023-01-04T11:16:28.095Z,986.58
2023-01-04T11:17:28.013Z,986.54
2023-01-04T11:18:28.027Z,986.51
2023-01-04T11:19:27.997Z,986.49
2023-01-04T11:20:29.717Z,986.56
2023-01-04T11:21:27.972Z,986.54
2023-01-04T11:22:27.958Z,986.50
2023-01-04T11:23:27.931Z,986.67
2023-01-04T11:24:32.662Z,986.59
2023-01-04T11:25:36.928Z,986.53
2023-01-04T11:26:28.907Z,986.53
2023-01-04T11:27:27.888Z,986.54
2023-01-04T11:28:27.866Z,986.46
2023-01-04T11:29:27.844Z,986.49
2023-01-04T11:30:27.852Z,986.49
2023-01-04T11:31:27.889Z,986.48
2023-01-04T11:32:27.804Z,986.49
2023-01-04T11:33:27.792Z,986.45
2023-01-04T11:34:27.808Z,986.45
2023-01-04T11:35:27.815Z,986.37
2023-01-04T11:36:27.755Z,986.37
2023-01-04T11:37:27.753Z,986.33
2023-01-04T11:38:27.778Z,986.32
2023-01-04T11:39:27.736Z,986.38
2023-01-04T11:40:27.721Z,986.36
2023-01-04T11:41:27.683Z,986.36
2023-01-04T11:42:27.677Z,986.32
2023-01-04T11:43:27.666Z,986.35
2023-01-04T11:44:27.668Z,986.31
2023-01-04T11:45:27.746Z,986.23
2023-01-04T11:46:27.731Z,986.17
2023-01-04T11:47:29.843Z,986.33
2023-01-04T11:48:28.606Z,986.16
2023-01-04T11:49:27.598Z,986.16
2023-01-04T11:50:27.614Z,986.16
2023-01-04T11:51:27.600Z,986.08
2023-01-04T11:52:27.550Z,986.12
2023-01-04T11:53:27.567Z,986.09
2023-01-04T11:54:27.552Z,985.97
2023-01-04T11:55:27.544Z,985.99
2023-01-04T11:56:27.498Z,986.00
2023-01-04T11:57:27.479Z,985.99
2023-01-04T11:58:27.466Z,985.98
2023-01-04T11:59:27.452Z,985.99
2023-01-04T12:00:27.479Z,985.89
2023-01-04T12:01:27.511Z,985.89
2023-01-04T12:03:00.948Z,985.92
2023-01-04T12:03:28.400Z,985.85
2023-01-04T12:04:27.416Z,985.89
2023-01-04T12:05:30.370Z,985.80
2023-01-04T12:06:27.368Z,985.72
2023-01-04T12:07:27.357Z,985.85
2023-01-04T12:08:27.369Z,985.85
2023-01-04T12:09:27.329Z,985.85
2023-01-04T12:10:27.675Z,985.90
2023-01-04T12:11:27.339Z,985.87
2023-01-04T12:12:27.288Z,985.86
2023-01-04T12:13:27.269Z,985.82
2023-01-04T12:14:27.256Z,985.74
2023-01-04T12:15:27.281Z,985.72
2023-01-04T12:16:27.229Z,985.73
2023-01-04T12:17:27.259Z,985.63
2023-01-04T12:18:27.219Z,985.53
2023-01-04T12:19:27.197Z,985.63
2023-01-04T12:20:27.202Z,985.75
2023-01-04T12:21:27.199Z,985.55
2023-01-04T12:22:27.177Z,985.43
2023-01-04T12:23:27.143Z,985.55
2023-01-04T12:24:27.138Z,985.44
2023-01-04T12:25:27.121Z,985.40
2023-01-04T12:26:27.119Z,985.37
2023-01-04T12:27:27.127Z,985.37
2023-01-04T12:28:27.083Z,985.42
2023-01-04T12:29:27.052Z,985.45
2023-01-04T12:30:27.077Z,985.48
2023-01-04T12:31:27.045Z,985.38
2023-01-04T12:32:27.026Z,985.30
2023-01-04T12:33:27.012Z,985.36
2023-01-04T12:34:27.002Z,985.35
2023-01-04T12:35:26.999Z,985.41
2023-01-04T12:36:26.961Z,985.37
2023-01-04T12:37:26.966Z,985.35
2023-01-04T12:38:26.942Z,985.47
2023-01-04T12:39:26.941Z,985.39
2023-01-04T12:40:26.946Z,985.36
2023-01-04T12:41:26.903Z,985.34
2023-01-04T12:42:26.907Z,985.38
2023-01-04T12:43:26.874Z,985.36
2023-01-04T12:44:26.888Z,985.31
2023-01-04T12:45:26.886Z,985.23
2023-01-04T12:46:26.881Z,985.27
2023-01-04T12:47:26.833Z,985.29
2023-01-04T12:48:26.813Z,985.23
2023-01-04T12:49:26.795Z,985.31
2023-01-04T12:50:26.801Z,985.29
2023-01-04T12:51:34.418Z,985.07
2023-01-04T12:52:42.579Z,985.35
2023-01-04T12:53:30.262Z,985.19
2023-01-04T12:54:26.723Z,985.26
2023-01-04T12:55:26.726Z,985.13
2023-01-04T12:56:26.707Z,985.12
2023-01-04T12:57:29.484Z,985.18
2023-01-04T12:58:42.242Z,985.12
2023-01-04T12:59:27.689Z,985.06
2023-01-04T13:00:26.664Z,985.12
2023-01-04T13:01:26.823Z,985.04
2023-01-04T13:02:26.791Z,985.04
2023-01-04T13:03:26.633Z,985.08